ARCT2: Red River, ARthur City

                                SHEF ID:       ARCT2     Red River at Arthur City, TX
STATION TYPE: Stream Gauge
Regulating: Stage = 27.00, Flow = 84609

PRECIP ELEVATION STAGE STAGE(2) RIV-FLOW BAT-LOAD
in ft ft ft cfs volt
Ccp-Rev Ccp-Rev Ccp-Rev Ccp-Rev Ccp-Rev Ccp-Rev
(America/Chicago)
03/18 00:00 0.00 ---- 4.65 ---- 1700 12.49
03/18 01:00 0.00 ---- 4.62 ---- 1668 12.49
03/18 02:00 0.00 ---- 4.60 ---- 1647 12.49
03/18 03:00 0.00 ---- 4.58 ---- 1625 12.41
03/18 04:00 0.00 ---- 4.56 ---- 1604 12.41
03/18 05:00 0.00 ---- 4.56 ---- 1604 12.41
03/18 06:00 0.00 ---- 4.53 ---- 1573 12.41
03/18 07:00 0.00 ---- 4.52 ---- 1562 12.33
03/18 08:00 0.00 ---- 4.55 ---- 1594 12.33
03/18 09:00 0.00 ---- 4.50 ---- 1541 12.57
03/18 10:00 0.00 ---- 4.50 ---- 1541 13.53
03/18 11:00 0.00 ---- 4.48 ---- 1521 13.92
03/18 12:00 0.00 ---- 4.47 ---- 1510 13.92
03/18 13:00 0.00 ---- 4.43 ---- 1469 14.16
03/18 14:00 0.00 ---- 4.43 ---- 1469 13.92
03/18 15:00 0.00 ---- 4.42 ---- 1459 14.08
03/18 16:00 0.00 ---- 4.38 ---- 1419 13.84
03/18 17:00 0.00 ---- 4.37 ---- 1409 13.84
03/18 18:00 0.00 ---- 4.37 ---- 1409 13.76
03/18 19:00 0.00 ---- 4.36 ---- 1399 13.60
03/18 20:00 0.00 ---- 4.38 ---- 1419 13.13
03/18 21:00 0.00 ---- 4.35 ---- 1389 12.65
03/18 22:00 0.00 ---- 4.36 ---- 1399 12.57
03/18 23:00 0.00 ---- 4.34 ---- 1379 12.57
Data processed at Thu 19Mar2026 04:30 GMT

NOTICE: If you are parsing this page

Please convert to using our Data API. Starting early 2026 we will be migrating to: https://water.usace.army.mil with modern pages rendered in JavaScript. When this migration completes you will no longer be able to scrape this page! CWMSDataAPI (CDA)

Timeseries IDs (TSIDs)

TSIDs used from left to right in the data table
ARTH.Precip-Inc.Total.1Hour.1Hour.Ccp-Rev
ARTH.Stage.Inst.1Hour.0.Ccp-Rev
ARTH.Stage-Alt.Inst.1Hour.0.Ccp-Rev
ARTH.Flow.Inst.1Hour.0.Ccp-Rev
ARTH.Volt-Battery Load.Inst.1Hour.0.Ccp-Rev

                            

All information presented herein is the property of the government of the United States of America and may be revised or deleted at any time without prior notice. Dissemination of this information without the expressed written consent of the Public Affairs Office, Tulsa District U.S. Army Corps of Engineers is strictly prohibited. These data are gathered electronically and, as presented, have NOT undergone any form of quality control. These data are NOT guaranteed to be valid or correct.